Aeroporto :
LOGIN :

Iscrizione | Disclaimer

   EN    FR    IT 

 










Sommario :    VFR   VFR Marginale   IFR   IFR Intensivo   IFR Molto Intensivo
Visibilità : 
Base nubi : 
>= 8 km
>= 3000ft
5 / 8 km
1000 / 3000 ft
1500m / 5 km
500 / 1000 ft
800 / 1500m
200 / 500 ft
< 800m
< 200 ft
Simboli :   Temporali  Nebbia  Neve Forte  Precipitazioni Forti  Vento > 20 kt
SIGMETs :   Varie  Temporali  Ghiacco  Turbolenza  Onda orograficha  Ceneri Vulcaniche







- Altitudine del aeroporto : 464 ft
- Codice IATA : EVX
- Carte del aeroporto


LFOE - Evreux

ULTIMO METAR :
  • 211630Z AUTO 32005KT 270V010 9999 FEW029 22/15 Q1015 TEMPO VRB15G25KT 3000 SHRA BKN030TCU

METARs OBSOLETI :
  • 211600Z AUTO 33004KT 280V020 9999 SCT029 BKN048 BKN054 22/15 Q1015 TEMPO VRB15G25KT 3000 SHRA BKN030TCU
  • 211530Z AUTO 30006KT 270V360 9999 FEW026 BKN045 BKN078 22/15 Q1015 TEMPO VRB15G25KT 3000 SHRA BKN030TCU
  • 211500Z AUTO 29006KT 260V330 9999 SCT048 BKN078 22/15 Q1015 TEMPO VRB15G25KT 3000 SHRA BKN030TCU
  • 211430Z AUTO 29007KT 260V330 9999 SCT024 SCT038 BKN072 22/15 Q1015 TEMPO VRB15G25KT 3000 SHRA BKN030TCU
  • 211400Z AUTO 30005KT 240V360 9999 FEW021 BKN047 21/15 Q1015

TAF TAF LFOE
Valido dal 21 a 15 ore il 22 a 15 ore UTC


211400Z 2115/2215 26005KT 9999 BKN030
TEMPO 2115/2120 VRB15G25KT 3000 SHRA BKN030TCU
BECMG 2123/2201 BKN008
BECMG 2207/2209 CAVOK
Nessun NOTAM noto per questo aeroporto.



MetMap, La meteo Aeronautica in un colpo d'occhio ! - Copyright ORBIFLY Dicembre 2007 - Disclaimer

ORBIFLY MET'MAP TEAM :

Programmazione e sviluppo : Alexandra Zaïnal
Concezione e sviluppo : Baudouin d'Aumeries
Co-Programmazione e sviluppo : Marc-Olivier Méhu
Supporto tecnico e logistico : Manuel Goepfert
Aiuto per la traduzione : Arnaldo La Scala

Contatto : metmap@orbifly.com




FONTI E CREDITI :

   NOAA